createdAt,value
2023-05-19T00:01:01.107Z,99905.44
2023-05-19T00:03:28.522Z,99907.41
2023-05-19T00:05:58.411Z,99899.28
2023-05-19T00:08:30.702Z,99910.16
2023-05-19T00:10:57.848Z,99906.41
2023-05-19T00:13:25.303Z,99903.22
2023-05-19T00:15:52.824Z,99903.53
2023-05-19T00:18:19.567Z,99903.56
2023-05-19T00:20:46.296Z,99897.63
2023-05-19T00:23:12.856Z,99901.72
2023-05-19T00:25:40.905Z,99912.00
2023-05-19T00:28:07.442Z,99905.53
2023-05-19T00:30:34.257Z,99906.94
2023-05-19T00:33:01.106Z,99895.31
2023-05-19T00:35:27.687Z,99898.84
2023-05-19T00:37:54.250Z,99892.41
2023-05-19T00:40:21.734Z,99887.53
2023-05-19T00:42:49.595Z,99890.00
2023-05-19T00:45:16.112Z,99898.97
2023-05-19T00:47:42.969Z,99891.44
2023-05-19T00:50:10.324Z,99889.81
2023-05-19T00:52:37.066Z,99884.44
2023-05-19T00:55:04.037Z,99884.47
2023-05-19T00:57:30.781Z,99884.50
2023-05-19T00:59:58.986Z,99890.75
2023-05-19T01:02:25.620Z,99898.34
2023-05-19T01:04:52.371Z,99891.91
2023-05-19T01:07:19.166Z,99888.16
2023-05-19T01:09:47.152Z,99887.63
2023-05-19T01:12:14.263Z,99890.84
2023-05-19T01:14:41.328Z,99891.44
2023-05-19T01:17:16.086Z,99889.31
2023-05-19T01:19:57.387Z,99882.56
2023-05-19T01:22:39.767Z,99881.53
2023-05-19T01:25:36.051Z,99874.22
2023-05-19T01:28:32.737Z,99867.25
2023-05-19T01:31:01.719Z,99872.94
2023-05-19T01:33:30.839Z,99870.25
2023-05-19T01:35:59.003Z,99871.06
2023-05-19T01:38:28.147Z,99881.34
2023-05-19T01:40:56.369Z,99877.03
2023-05-19T01:43:26.269Z,99877.84
2023-05-19T01:45:53.625Z,99877.59
2023-05-19T01:48:22.683Z,99873.03
2023-05-19T01:50:49.358Z,99875.72
2023-05-19T01:53:16.050Z,99876.56
2023-05-19T01:55:44.518Z,99873.03
2023-05-19T01:58:18.409Z,99881.41
2023-05-19T02:00:53.382Z,99884.38
2023-05-19T02:03:53.964Z,99882.75
2023-05-19T02:06:32.864Z,99881.41
2023-05-19T02:09:04.040Z,99883.03
2023-05-19T02:11:36.651Z,99879.53
2023-05-19T02:14:08.586Z,99883.56
2023-05-19T02:16:36.502Z,99882.75
2023-05-19T02:19:04.806Z,99882.22
2023-05-19T02:21:31.546Z,99885.47
2023-05-19T02:23:58.372Z,99877.63
2023-05-19T02:26:25.221Z,99885.16
2023-05-19T02:28:51.729Z,99882.22
2023-05-19T02:31:18.463Z,99880.06
2023-05-19T02:33:45.051Z,99876.81
2023-05-19T02:36:12.998Z,99878.72
2023-05-19T02:38:39.568Z,99881.38
2023-05-19T02:41:06.375Z,99881.38
2023-05-19T02:43:33.038Z,99877.88
2023-05-19T02:45:59.610Z,99880.56
2023-05-19T02:48:26.273Z,99875.44
2023-05-19T02:50:52.836Z,99878.13
2023-05-19T02:53:20.947Z,99870.03
2023-05-19T02:55:47.563Z,99874.63
2023-05-19T02:58:14.066Z,99876.22
2023-05-19T03:00:40.566Z,99867.56
2023-05-19T03:03:07.282Z,99864.38
2023-05-19T03:05:33.926Z,99862.44
2023-05-19T03:08:00.587Z,99862.97
2023-05-19T03:10:28.511Z,99864.03
2023-05-19T03:12:55.072Z,99872.94
2023-05-19T03:15:21.579Z,99871.56
2023-05-19T03:17:48.391Z,99868.63
2023-05-19T03:20:15.282Z,99862.13
2023-05-19T03:22:41.878Z,99863.19
2023-05-19T03:25:09.241Z,99866.94
2023-05-19T03:27:37.343Z,99867.22
2023-05-19T03:30:06.478Z,99866.41
2023-05-19T03:32:33.439Z,99874.72
2023-05-19T03:35:00.033Z,99876.09
2023-05-19T03:37:26.716Z,99872.84
2023-05-19T03:39:53.838Z,99873.09
2023-05-19T03:42:20.394Z,99873.09
2023-05-19T03:44:48.461Z,99880.09
2023-05-19T03:47:15.046Z,99887.88
2023-05-19T03:49:41.617Z,99877.94
2023-05-19T03:52:08.148Z,99886.81
2023-05-19T03:54:34.751Z,99874.16
2023-05-19T03:57:01.435Z,99882.25
2023-05-19T03:59:28.166Z,99884.69
2023-05-19T04:01:56.037Z,99877.94
2023-05-19T04:04:22.834Z,99877.66
2023-05-19T04:06:49.545Z,99883.59
2023-05-19T04:09:16.315Z,99888.19
2023-05-19T04:11:43.110Z,99884.69
2023-05-19T04:14:09.781Z,99876.88
2023-05-19T04:16:36.510Z,99886.31
2023-05-19T04:19:04.699Z,99884.44
2023-05-19T04:21:31.510Z,99876.09
2023-05-19T04:23:58.129Z,99873.41
2023-05-19T04:26:24.884Z,99878.78
2023-05-19T04:28:51.395Z,99873.66
2023-05-19T04:31:18.143Z,99880.41
2023-05-19T04:33:44.743Z,99874.75
2023-05-19T04:36:12.648Z,99872.06
2023-05-19T04:38:40.115Z,99877.97
2023-05-19T04:41:06.873Z,99876.38
2023-05-19T04:43:33.408Z,99889.84
2023-05-19T04:46:00.007Z,99887.69
2023-05-19T04:48:26.580Z,99889.03
2023-05-19T04:50:53.216Z,99889.31
2023-05-19T04:53:21.116Z,99902.25
2023-05-19T04:55:47.718Z,99899.84
2023-05-19T04:58:14.329Z,99898.22
2023-05-19T05:00:41.024Z,99898.78
2023-05-19T05:03:07.978Z,99895.56
2023-05-19T05:05:35.136Z,99902.03
2023-05-19T05:08:01.913Z,99904.75
2023-05-19T05:10:29.976Z,99904.22
2023-05-19T05:12:57.118Z,99912.84
2023-05-19T05:15:24.129Z,99908.56
2023-05-19T05:17:51.194Z,99903.97
2023-05-19T05:20:18.560Z,99909.88
2023-05-19T05:22:45.639Z,99908.03
2023-05-19T05:25:13.965Z,99902.91
2023-05-19T05:27:42.021Z,99909.94
2023-05-19T05:30:09.234Z,99907.53
2023-05-19T05:32:36.028Z,99906.72
2023-05-19T05:35:02.884Z,99905.38
2023-05-19T05:37:30.583Z,99899.75
2023-05-19T05:39:57.189Z,99895.16
2023-05-19T05:42:23.905Z,99895.97
2023-05-19T05:44:52.029Z,99904.34
2023-05-19T05:47:19.108Z,99888.94
2023-05-19T05:49:46.235Z,99897.00
2023-05-19T05:52:13.021Z,99892.38
2023-05-19T05:54:40.286Z,99892.31
2023-05-19T05:57:07.825Z,99888.75
2023-05-19T05:59:34.401Z,99884.25
2023-05-19T06:02:02.713Z,99891.88
2023-05-19T06:04:29.488Z,99886.72
2023-05-19T06:06:56.073Z,99875.63
2023-05-19T06:09:25.449Z,99886.47
2023-05-19T06:11:52.165Z,99880.66
2023-05-19T06:14:18.680Z,99883.50
2023-05-19T06:16:45.195Z,99883.84
2023-05-19T06:19:13.674Z,99889.50
2023-05-19T06:21:40.408Z,99882.03
2023-05-19T06:24:07.425Z,99879.09
2023-05-19T06:26:34.003Z,99881.94
2023-05-19T06:29:00.563Z,99882.16
2023-05-19T06:31:27.172Z,99890.34
2023-05-19T06:33:53.880Z,99882.59
2023-05-19T06:36:21.908Z,99886.81
2023-05-19T06:38:48.582Z,99886.47
2023-05-19T06:41:15.214Z,99886.09
2023-05-19T06:43:42.245Z,99888.22
2023-05-19T06:46:08.829Z,99879.28
2023-05-19T06:48:35.496Z,99879.59
2023-05-19T06:51:02.027Z,99885.72
2023-05-19T06:53:30.149Z,99879.03
2023-05-19T06:55:59.976Z,99871.56
2023-05-19T06:58:27.080Z,99878.91
2023-05-19T07:00:53.676Z,99869.06
2023-05-19T07:03:20.266Z,99863.97
2023-05-19T07:05:46.945Z,99870.59
2023-05-19T07:08:13.656Z,99871.19
2023-05-19T07:10:41.546Z,99867.56
2023-05-19T07:13:08.081Z,99872.59
2023-05-19T07:15:34.634Z,99865.03
2023-05-19T07:18:01.234Z,99864.44
2023-05-19T07:20:27.972Z,99850.97
2023-05-19T07:22:54.549Z,99852.16
2023-05-19T07:25:21.251Z,99858.25
2023-05-19T07:27:49.119Z,99851.19
2023-05-19T07:30:15.782Z,99848.41
2023-05-19T07:32:42.388Z,99846.00
2023-05-19T07:35:09.213Z,99848.69
2023-05-19T07:37:35.795Z,99833.56
2023-05-19T07:40:02.417Z,99831.03
2023-05-19T07:42:29.160Z,99836.53
2023-05-19T07:44:57.073Z,99835.66
2023-05-19T07:47:23.787Z,99832.91
2023-05-19T07:49:51.809Z,99835.81
2023-05-19T07:52:18.691Z,99832.66
2023-05-19T07:54:45.806Z,99825.69
2023-05-19T07:57:12.523Z,99819.31
2023-05-19T07:59:39.052Z,99816.25
2023-05-19T08:02:07.484Z,99809.03
2023-05-19T08:04:34.114Z,99809.34
2023-05-19T08:07:00.703Z,99805.38
2023-05-19T08:09:27.259Z,99809.59
2023-05-19T08:11:54.027Z,99819.59
2023-05-19T08:14:20.689Z,99821.19
2023-05-19T08:16:47.256Z,99815.06
2023-05-19T08:19:15.416Z,99814.38
2023-05-19T08:21:41.954Z,99811.97
2023-05-19T08:24:08.982Z,99814.31
2023-05-19T08:26:37.598Z,99815.47
2023-05-19T08:29:04.777Z,99814.88
2023-05-19T08:31:31.759Z,99802.44
2023-05-19T08:33:58.378Z,99806.78
2023-05-19T08:36:26.436Z,99796.56
2023-05-19T08:38:52.986Z,99793.69
2023-05-19T08:41:19.707Z,99791.38
2023-05-19T08:43:46.240Z,99790.03
2023-05-19T08:46:14.188Z,99790.22
2023-05-19T08:48:44.112Z,99782.34
2023-05-19T08:51:23.003Z,99790.19
2023-05-19T08:53:53.259Z,99783.41
2023-05-19T08:56:21.974Z,99791.69
2023-05-19T08:58:50.740Z,99784.06
2023-05-19T09:01:19.413Z,99782.72
2023-05-19T09:03:47.318Z,99779.16
2023-05-19T09:06:14.034Z,99783.75
2023-05-19T09:08:41.348Z,99774.69
2023-05-19T09:11:10.426Z,99773.50
2023-05-19T09:13:37.207Z,99767.91
2023-05-19T09:16:04.357Z,99776.94
2023-05-19T09:18:31.417Z,99778.28
2023-05-19T09:20:59.209Z,99770.03
2023-05-19T09:23:27.844Z,99769.97
2023-05-19T09:25:54.477Z,99765.72
2023-05-19T09:28:26.820Z,99765.47
2023-05-19T09:31:01.090Z,99775.78
2023-05-19T09:33:27.834Z,99776.31
2023-05-19T09:35:54.978Z,99765.66
2023-05-19T09:38:22.208Z,99769.19
2023-05-19T09:40:49.039Z,99764.78
2023-05-19T09:43:15.649Z,99771.66
2023-05-19T09:45:43.531Z,99766.09
2023-05-19T09:48:10.103Z,99762.78
2023-05-19T09:50:37.302Z,99763.66
2023-05-19T09:53:03.959Z,99763.69
2023-05-19T09:55:31.081Z,99755.41
2023-05-19T09:57:57.864Z,99754.47
2023-05-19T10:00:24.766Z,99755.41
2023-05-19T10:02:53.796Z,99750.16
2023-05-19T10:05:20.866Z,99755.22
2023-05-19T10:07:50.757Z,99754.16
2023-05-19T10:10:17.808Z,99743.59
2023-05-19T10:12:45.315Z,99755.25
2023-05-19T10:15:13.288Z,99750.97
2023-05-19T10:17:41.367Z,99749.09
2023-05-19T10:20:12.022Z,99747.47
2023-05-19T10:22:38.852Z,99749.47
2023-05-19T10:25:06.999Z,99741.16
2023-05-19T10:27:35.922Z,99735.94
2023-05-19T10:30:11.469Z,99731.84
2023-05-19T10:32:41.356Z,99729.09
2023-05-19T10:35:36.927Z,99734.06
2023-05-19T10:38:14.832Z,99727.75
2023-05-19T10:40:51.214Z,99732.72
2023-05-19T10:43:35.991Z,99730.41
2023-05-19T10:46:04.113Z,99729.59
2023-05-19T10:48:33.957Z,99732.03
2023-05-19T10:51:02.406Z,99721.72
2023-05-19T10:53:32.450Z,99730.09
2023-05-19T10:56:02.213Z,99719.31
2023-05-19T10:58:49.637Z,99716.50
2023-05-19T11:01:17.453Z,99708.53
2023-05-19T11:03:48.945Z,99715.66
2023-05-19T11:06:26.144Z,99712.03
2023-05-19T11:08:54.062Z,99700.81
2023-05-19T11:11:20.989Z,99711.22
2023-05-19T11:13:48.569Z,99711.97
2023-05-19T11:16:18.979Z,99714.41
2023-05-19T11:18:48.644Z,99713.56
2023-05-19T11:21:15.290Z,99707.81
2023-05-19T11:23:43.424Z,99703.84
2023-05-19T11:26:10.063Z,99706.38
2023-05-19T11:28:37.333Z,99707.94
2023-05-19T11:31:05.035Z,99715.38
2023-05-19T11:33:32.409Z,99703.63
2023-05-19T11:35:59.267Z,99707.50
2023-05-19T11:38:26.490Z,99694.38
2023-05-19T11:40:55.228Z,99693.88
2023-05-19T11:43:23.370Z,99696.06
2023-05-19T11:45:50.029Z,99700.88
2023-05-19T11:48:16.953Z,99692.22
2023-05-19T11:50:43.832Z,99690.53
2023-05-19T11:53:12.828Z,99691.34
2023-05-19T11:55:42.504Z,99695.09
2023-05-19T11:58:10.586Z,99697.97
2023-05-19T12:00:40.277Z,99700.41
2023-05-19T12:03:08.325Z,99703.38
2023-05-19T12:05:40.770Z,99705.22
2023-05-19T12:08:08.807Z,99696.78
2023-05-19T12:10:35.550Z,99693.41
2023-05-19T12:13:03.020Z,99694.84
2023-05-19T12:15:31.947Z,99690.03
2023-05-19T12:18:00.474Z,99690.69
2023-05-19T12:20:28.574Z,99687.22
2023-05-19T12:22:55.921Z,99679.94
2023-05-19T12:25:23.388Z,99685.50
2023-05-19T12:27:50.599Z,99679.25
2023-05-19T12:30:17.191Z,99676.91
2023-05-19T12:32:46.599Z,99678.34
2023-05-19T12:35:15.788Z,99677.41
2023-05-19T12:37:42.478Z,99674.53
2023-05-19T12:40:10.224Z,99680.53
2023-05-19T12:42:37.028Z,99670.06
2023-05-19T12:45:04.669Z,99681.66
2023-05-19T12:47:32.384Z,99678.50
2023-05-19T12:50:04.241Z,99669.91
2023-05-19T12:52:31.929Z,99676.94
2023-05-19T12:54:59.361Z,99679.47
2023-05-19T12:57:26.256Z,99679.31
2023-05-19T12:59:53.423Z,99673.53
2023-05-19T13:02:20.134Z,99668.00
2023-05-19T13:04:46.819Z,99670.66
2023-05-19T13:07:14.715Z,99675.81
2023-05-19T13:09:41.300Z,99668.56
2023-05-19T13:12:08.033Z,99668.31
2023-05-19T13:14:34.593Z,99670.38
2023-05-19T13:17:01.179Z,99659.66
2023-05-19T13:19:27.791Z,99673.44
2023-05-19T13:21:54.424Z,99669.56
2023-05-19T13:24:22.318Z,99670.16
2023-05-19T13:26:48.853Z,99656.22
2023-05-19T13:29:15.542Z,99658.97
2023-05-19T13:31:42.121Z,99656.13
2023-05-19T13:34:08.732Z,99658.28
2023-05-19T13:36:35.302Z,99646.47
2023-05-19T13:39:02.105Z,99646.13
2023-05-19T13:41:30.332Z,99647.19
2023-05-19T13:43:58.335Z,99642.81
2023-05-19T13:46:36.673Z,99650.47
2023-05-19T13:49:10.376Z,99639.75
2023-05-19T13:51:37.083Z,99645.84
2023-05-19T13:54:03.841Z,99652.19
2023-05-19T13:56:31.750Z,99648.34
2023-05-19T13:58:58.388Z,99650.69
2023-05-19T14:01:24.971Z,99639.03
2023-05-19T14:03:51.832Z,99644.81
2023-05-19T14:06:18.708Z,99647.53
2023-05-19T14:08:45.625Z,99648.50
2023-05-19T14:11:17.538Z,99643.59
2023-05-19T14:13:45.464Z,99647.97
2023-05-19T14:16:12.071Z,99648.06
2023-05-19T14:18:38.910Z,99645.47
2023-05-19T14:21:05.928Z,99641.06
2023-05-19T14:23:32.632Z,99637.59
2023-05-19T14:25:59.221Z,99641.25
2023-05-19T14:28:25.861Z,99637.41
2023-05-19T14:30:53.835Z,99649.13
2023-05-19T14:33:20.744Z,99641.59
2023-05-19T14:35:47.349Z,99636.81
2023-05-19T14:38:14.040Z,99628.13
2023-05-19T14:40:40.690Z,99630.38
2023-05-19T14:43:07.543Z,99626.41
2023-05-19T14:45:34.116Z,99637.94
2023-05-19T14:48:02.350Z,99635.13
2023-05-19T14:50:29.410Z,99625.59
2023-05-19T14:52:56.646Z,99634.31
2023-05-19T14:55:23.387Z,99629.56
2023-05-19T14:57:50.136Z,99628.09
2023-05-19T15:00:17.069Z,99634.84
2023-05-19T15:02:44.176Z,99629.25
2023-05-19T15:05:12.322Z,99629.66
2023-05-19T15:07:39.097Z,99628.81
2023-05-19T15:10:06.409Z,99626.91
2023-05-19T15:12:33.147Z,99628.91
2023-05-19T15:14:59.708Z,99626.13
2023-05-19T15:17:26.588Z,99626.16
2023-05-19T15:19:53.296Z,99632.50
2023-05-19T15:22:21.254Z,99631.28
2023-05-19T15:24:47.812Z,99627.63
2023-05-19T15:27:14.518Z,99622.19
2023-05-19T15:29:41.219Z,99629.31
2023-05-19T15:32:08.649Z,99629.31
2023-05-19T15:34:35.214Z,99623.75
2023-05-19T15:37:01.886Z,99626.53
2023-05-19T15:39:30.333Z,99621.34
2023-05-19T15:41:56.901Z,99616.13
2023-05-19T15:44:23.426Z,99618.88
2023-05-19T15:46:49.960Z,99613.69
2023-05-19T15:49:16.572Z,99611.25
2023-05-19T15:51:43.302Z,99616.47
2023-05-19T15:54:10.057Z,99612.88
2023-05-19T15:56:37.996Z,99609.31
2023-05-19T15:59:04.677Z,99614.06
2023-05-19T16:01:31.449Z,99604.50
2023-05-19T16:03:58.130Z,99605.31
2023-05-19T16:06:24.906Z,99606.88
2023-05-19T16:08:51.557Z,99598.06
2023-05-19T16:11:18.107Z,99599.19
2023-05-19T16:13:46.070Z,99603.50
2023-05-19T16:16:12.642Z,99600.31
2023-05-19T16:18:39.230Z,99602.47
2023-05-19T16:21:06.090Z,99586.50
2023-05-19T16:23:32.786Z,99591.66
2023-05-19T16:25:59.331Z,99582.94
2023-05-19T16:28:25.920Z,99590.72
2023-05-19T16:30:57.086Z,99588.28
2023-05-19T16:33:23.832Z,99584.66
2023-05-19T16:35:50.434Z,99586.78
2023-05-19T16:38:17.208Z,99594.59
2023-05-19T16:40:43.826Z,99596.19
2023-05-19T16:43:10.571Z,99592.66
2023-05-19T16:45:37.170Z,99594.59
2023-05-19T16:48:05.718Z,99596.34
2023-05-19T16:50:32.332Z,99598.41
2023-05-19T16:52:58.897Z,99597.00
2023-05-19T16:55:25.567Z,99595.66
2023-05-19T16:57:52.157Z,99591.47
2023-05-19T17:00:19.478Z,99590.28
2023-05-19T17:02:46.227Z,99588.63
2023-05-19T17:05:14.204Z,99593.69
2023-05-19T17:07:40.790Z,99597.97
2023-05-19T17:10:08.582Z,99602.25
2023-05-19T17:12:35.100Z,99599.63
2023-05-19T17:15:01.684Z,99597.34
2023-05-19T17:17:28.254Z,99597.00
2023-05-19T17:19:54.839Z,99604.31
2023-05-19T17:22:22.727Z,99601.78
2023-05-19T17:24:49.306Z,99605.78
2023-05-19T17:27:15.857Z,99596.28
2023-05-19T17:29:42.454Z,99593.03
2023-05-19T17:32:09.086Z,99608.94
2023-05-19T17:34:35.715Z,99606.91
2023-05-19T17:37:02.417Z,99614.31
2023-05-19T17:39:30.313Z,99623.09
2023-05-19T17:41:56.864Z,99617.53
2023-05-19T17:44:23.436Z,99619.53
2023-05-19T17:46:50.161Z,99614.47
2023-05-19T17:49:16.766Z,99614.31
2023-05-19T17:51:43.816Z,99616.03
2023-05-19T17:54:11.071Z,99613.03
2023-05-19T17:56:41.424Z,99614.72
2023-05-19T17:59:08.544Z,99617.53
2023-05-19T18:01:35.762Z,99614.06
2023-05-19T18:04:02.947Z,99615.38
2023-05-19T18:06:30.315Z,99613.97
2023-05-19T18:08:58.732Z,99619.50
2023-05-19T18:11:25.824Z,99609.84
2023-05-19T18:13:53.729Z,99604.28
2023-05-19T18:16:20.457Z,99602.13
2023-05-19T18:18:47.105Z,99608.09
2023-05-19T18:21:13.641Z,99611.22
2023-05-19T18:23:40.661Z,99603.41
2023-05-19T18:26:07.304Z,99600.91
2023-05-19T18:28:34.066Z,99608.63
2023-05-19T18:31:04.563Z,99612.59
2023-05-19T18:33:31.440Z,99613.56
2023-05-19T18:35:58.444Z,99607.09
2023-05-19T18:38:25.021Z,99610.31
2023-05-19T18:40:52.142Z,99606.13
2023-05-19T18:43:19.137Z,99615.31
2023-05-19T18:45:46.758Z,99612.84
2023-05-19T18:48:14.773Z,99610.59
2023-05-19T18:50:41.482Z,99621.34
2023-05-19T18:53:08.027Z,99617.59
2023-05-19T18:55:37.087Z,99617.84
2023-05-19T18:58:04.941Z,99620.81
2023-05-19T19:00:31.962Z,99616.84
2023-05-19T19:02:58.721Z,99622.59
2023-05-19T19:05:26.883Z,99626.94
2023-05-19T19:07:53.484Z,99622.72
2023-05-19T19:10:20.249Z,99630.81
2023-05-19T19:12:46.849Z,99627.19
2023-05-19T19:15:14.040Z,99632.63
2023-05-19T19:17:40.824Z,99628.88
2023-05-19T19:20:08.849Z,99632.53
2023-05-19T19:22:37.065Z,99630.44
2023-05-19T19:25:04.137Z,99643.13
2023-05-19T19:27:30.691Z,99630.09
2023-05-19T19:29:57.609Z,99638.41
2023-05-19T19:32:24.208Z,99632.00
2023-05-19T19:34:50.904Z,99626.72
2023-05-19T19:37:17.598Z,99638.03
2023-05-19T19:39:45.534Z,99640.63
2023-05-19T19:42:12.215Z,99654.66
2023-05-19T19:44:38.769Z,99642.09
2023-05-19T19:47:05.501Z,99643.47
2023-05-19T19:49:32.335Z,99641.72
2023-05-19T19:51:59.033Z,99649.34
2023-05-19T19:54:25.658Z,99638.28
2023-05-19T19:56:53.621Z,99649.78
2023-05-19T19:59:20.204Z,99644.84
2023-05-19T20:01:46.773Z,99643.47
2023-05-19T20:04:13.588Z,99646.72
2023-05-19T20:06:40.213Z,99643.06
2023-05-19T20:09:06.828Z,99642.78
2023-05-19T20:11:33.455Z,99638.16
2023-05-19T20:14:01.502Z,99647.38
2023-05-19T20:16:28.132Z,99639.81
2023-05-19T20:18:54.858Z,99648.41
2023-05-19T20:21:21.651Z,99643.16
2023-05-19T20:23:48.153Z,99639.16
2023-05-19T20:26:14.868Z,99639.16
2023-05-19T20:28:41.552Z,99641.41
2023-05-19T20:31:09.513Z,99637.91
2023-05-19T20:33:36.229Z,99646.09
2023-05-19T20:36:02.827Z,99643.34
2023-05-19T20:38:29.532Z,99635.81
2023-05-19T20:40:56.089Z,99641.94
2023-05-19T20:43:22.659Z,99642.94
2023-05-19T20:45:49.477Z,99638.72
2023-05-19T20:48:17.414Z,99630.41
2023-05-19T20:50:44.127Z,99630.25
2023-05-19T20:53:10.687Z,99630.78
2023-05-19T20:55:38.411Z,99632.91
2023-05-19T20:58:05.210Z,99634.69
2023-05-19T21:00:32.200Z,99633.09
2023-05-19T21:02:59.193Z,99627.94
2023-05-19T21:05:27.185Z,99626.53
2023-05-19T21:07:53.789Z,99631.41
2023-05-19T21:10:20.478Z,99631.09
2023-05-19T21:12:47.262Z,99629.38
2023-05-19T21:15:14.154Z,99635.16
2023-05-19T21:17:40.768Z,99641.56
2023-05-19T21:20:08.753Z,99639.53
2023-05-19T21:22:36.659Z,99638.72
2023-05-19T21:25:03.392Z,99642.09
2023-05-19T21:27:29.948Z,99650.47
2023-05-19T21:29:56.533Z,99646.16
2023-05-19T21:32:23.130Z,99647.94
2023-05-19T21:34:49.698Z,99652.59
2023-05-19T21:37:16.210Z,99643.28
2023-05-19T21:39:44.345Z,99644.72
2023-05-19T21:42:11.012Z,99634.16
2023-05-19T21:44:37.673Z,99639.44
2023-05-19T21:47:04.360Z,99636.88
2023-05-19T21:49:31.103Z,99640.25
2023-05-19T21:51:57.668Z,99639.75
2023-05-19T21:54:24.388Z,99632.88
2023-05-19T21:56:52.301Z,99637.88
2023-05-19T21:59:18.860Z,99638.38
2023-05-19T22:01:45.635Z,99641.09
2023-05-19T22:04:12.193Z,99637.72
2023-05-19T22:06:38.841Z,99635.31
2023-05-19T22:09:05.378Z,99640.16
2023-05-19T22:11:32.106Z,99638.72
2023-05-19T22:14:00.006Z,99643.19
2023-05-19T22:16:26.760Z,99638.84
2023-05-19T22:18:53.438Z,99635.19
2023-05-19T22:21:20.568Z,99628.94
2023-05-19T22:23:47.090Z,99636.13
2023-05-19T22:26:13.924Z,99629.88
2023-05-19T22:28:40.647Z,99644.16
2023-05-19T22:31:08.764Z,99637.59
2023-05-19T22:33:35.309Z,99639.03
2023-05-19T22:36:02.019Z,99648.97
2023-05-19T22:38:28.569Z,99643.19
2023-05-19T22:40:55.183Z,99638.22
2023-05-19T22:43:21.732Z,99639.66
2023-05-19T22:45:48.541Z,99647.50
2023-05-19T22:48:16.621Z,99639.31
2023-05-19T22:50:43.438Z,99633.88
2023-05-19T22:53:10.140Z,99630.66
2023-05-19T22:55:37.021Z,99639.94
2023-05-19T22:58:03.719Z,99634.31
2023-05-19T23:00:30.271Z,99626.78
2023-05-19T23:02:56.876Z,99633.97
2023-05-19T23:05:24.993Z,99626.59
2023-05-19T23:07:51.620Z,99635.72
2023-05-19T23:10:18.211Z,99638.75
2023-05-19T23:12:44.817Z,99644.19
2023-05-19T23:15:11.649Z,99634.56
2023-05-19T23:17:38.319Z,99634.72
2023-05-19T23:20:06.076Z,99627.53
2023-05-19T23:22:33.975Z,99627.53
2023-05-19T23:25:00.638Z,99626.22
2023-05-19T23:27:27.152Z,99624.31
2023-05-19T23:29:53.660Z,99630.09
2023-05-19T23:32:20.158Z,99623.75
2023-05-19T23:34:47.203Z,99626.28
2023-05-19T23:37:13.724Z,99630.34
2023-05-19T23:39:41.773Z,99623.78
2023-05-19T23:42:08.344Z,99626.50
2023-05-19T23:44:34.963Z,99622.69
2023-05-19T23:47:01.769Z,99623.78
2023-05-19T23:49:28.333Z,99622.38
2023-05-19T23:51:54.889Z,99615.13
2023-05-19T23:54:21.503Z,99618.03
2023-05-19T23:56:49.534Z,99617.06
2023-05-19T23:59:16.091Z,99623.00
